sensor_id;sensor_type;location;lat;lon;timestamp;P1;durP1;ratioP1;P2;durP2;ratioP2
34296;SDS011;20564;42.902;25.336;2022-07-25T00:01:48;6.93;;;2.78;;
34296;SDS011;20564;42.902;25.336;2022-07-25T00:04:15;6.13;;;2.60;;
34296;SDS011;20564;42.902;25.336;2022-07-25T00:06:44;8.35;;;3.15;;
34296;SDS011;20564;42.902;25.336;2022-07-25T00:09:12;7.78;;;2.67;;
34296;SDS011;20564;42.902;25.336;2022-07-25T00:11:40;7.53;;;3.15;;
34296;SDS011;20564;42.902;25.336;2022-07-25T00:14:07;7.50;;;2.42;;
34296;SDS011;20564;42.902;25.336;2022-07-25T00:16:35;6.85;;;2.65;;
34296;SDS011;20564;42.902;25.336;2022-07-25T00:21:30;5.70;;;2.63;;
34296;SDS011;20564;42.902;25.336;2022-07-25T00:23:58;7.38;;;2.42;;
34296;SDS011;20564;42.902;25.336;2022-07-25T00:28:52;5.68;;;2.33;;
34296;SDS011;20564;42.902;25.336;2022-07-25T00:33:47;6.78;;;2.70;;
34296;SDS011;20564;42.902;25.336;2022-07-25T00:36:14;7.50;;;2.60;;
34296;SDS011;20564;42.902;25.336;2022-07-25T00:38:41;10.52;;;3.28;;
34296;SDS011;20564;42.902;25.336;2022-07-25T00:41:08;7.90;;;3.50;;
34296;SDS011;20564;42.902;25.336;2022-07-25T00:43:35;8.65;;;3.42;;
34296;SDS011;20564;42.902;25.336;2022-07-25T00:46:02;8.00;;;2.95;;
34296;SDS011;20564;42.902;25.336;2022-07-25T00:48:30;6.95;;;3.28;;
34296;SDS011;20564;42.902;25.336;2022-07-25T00:50:57;8.95;;;3.70;;
34296;SDS011;20564;42.902;25.336;2022-07-25T00:53:25;6.80;;;2.75;;
34296;SDS011;20564;42.902;25.336;2022-07-25T00:55:53;6.05;;;2.40;;
34296;SDS011;20564;42.902;25.336;2022-07-25T00:58:20;9.75;;;3.10;;
34296;SDS011;20564;42.902;25.336;2022-07-25T01:00:51;7.88;;;2.72;;
34296;SDS011;20564;42.902;25.336;2022-07-25T01:03:18;6.10;;;2.53;;
34296;SDS011;20564;42.902;25.336;2022-07-25T01:05:45;5.30;;;2.50;;
34296;SDS011;20564;42.902;25.336;2022-07-25T01:08:19;8.85;;;2.90;;
34296;SDS011;20564;42.902;25.336;2022-07-25T01:10:47;7.82;;;2.92;;
34296;SDS011;20564;42.902;25.336;2022-07-25T01:13:14;5.88;;;2.50;;
34296;SDS011;20564;42.902;25.336;2022-07-25T01:15:42;8.35;;;2.97;;
34296;SDS011;20564;42.902;25.336;2022-07-25T01:18:09;4.82;;;2.25;;
34296;SDS011;20564;42.902;25.336;2022-07-25T01:20:36;10.73;;;3.03;;
34296;SDS011;20564;42.902;25.336;2022-07-25T01:23:05;7.13;;;2.70;;
34296;SDS011;20564;42.902;25.336;2022-07-25T01:25:35;6.30;;;2.55;;
34296;SDS011;20564;42.902;25.336;2022-07-25T01:28:05;6.55;;;2.95;;
34296;SDS011;20564;42.902;25.336;2022-07-25T01:30:39;7.10;;;2.67;;
34296;SDS011;20564;42.902;25.336;2022-07-25T01:33:06;8.63;;;3.03;;
34296;SDS011;20564;42.902;25.336;2022-07-25T01:35:34;4.63;;;2.60;;
34296;SDS011;20564;42.902;25.336;2022-07-25T01:38:08;6.07;;;2.50;;
34296;SDS011;20564;42.902;25.336;2022-07-25T01:40:35;8.70;;;3.22;;
34296;SDS011;20564;42.902;25.336;2022-07-25T01:43:03;5.85;;;2.35;;
34296;SDS011;20564;42.902;25.336;2022-07-25T01:45:30;7.22;;;2.70;;
34296;SDS011;20564;42.902;25.336;2022-07-25T01:47:57;8.50;;;3.05;;
34296;SDS011;20564;42.902;25.336;2022-07-25T01:50:28;6.05;;;2.58;;
34296;SDS011;20564;42.902;25.336;2022-07-25T01:52:55;9.00;;;3.03;;
34296;SDS011;20564;42.902;25.336;2022-07-25T01:55:22;7.60;;;3.03;;
34296;SDS011;20564;42.902;25.336;2022-07-25T01:57:51;7.57;;;2.85;;
34296;SDS011;20564;42.902;25.336;2022-07-25T02:00:18;9.35;;;2.95;;
34296;SDS011;20564;42.902;25.336;2022-07-25T02:02:45;7.43;;;2.47;;
34296;SDS011;20564;42.902;25.336;2022-07-25T02:05:13;7.70;;;3.00;;
34296;SDS011;20564;42.902;25.336;2022-07-25T02:07:41;7.18;;;2.67;;
34296;SDS011;20564;42.902;25.336;2022-07-25T02:10:09;8.75;;;2.70;;
34296;SDS011;20564;42.902;25.336;2022-07-25T02:12:36;8.15;;;3.10;;
34296;SDS011;20564;42.902;25.336;2022-07-25T02:15:03;6.75;;;2.58;;
34296;SDS011;20564;42.902;25.336;2022-07-25T02:19:58;6.82;;;2.53;;
34296;SDS011;20564;42.902;25.336;2022-07-25T02:22:25;7.93;;;2.90;;
34296;SDS011;20564;42.902;25.336;2022-07-25T02:24:52;7.55;;;2.78;;
34296;SDS011;20564;42.902;25.336;2022-07-25T02:27:19;7.20;;;3.13;;
34296;SDS011;20564;42.902;25.336;2022-07-25T02:29:47;6.25;;;2.50;;
34296;SDS011;20564;42.902;25.336;2022-07-25T02:32:14;8.40;;;2.58;;
34296;SDS011;20564;42.902;25.336;2022-07-25T02:34:41;7.78;;;3.10;;
34296;SDS011;20564;42.902;25.336;2022-07-25T02:37:08;7.53;;;2.78;;
34296;SDS011;20564;42.902;25.336;2022-07-25T02:39:35;7.90;;;3.08;;
34296;SDS011;20564;42.902;25.336;2022-07-25T02:42:03;6.85;;;2.70;;
34296;SDS011;20564;42.902;25.336;2022-07-25T02:44:30;7.60;;;2.95;;
34296;SDS011;20564;42.902;25.336;2022-07-25T02:46:57;5.68;;;2.67;;
34296;SDS011;20564;42.902;25.336;2022-07-25T02:49:25;8.00;;;3.10;;
34296;SDS011;20564;42.902;25.336;2022-07-25T02:51:52;6.63;;;2.42;;
34296;SDS011;20564;42.902;25.336;2022-07-25T02:54:19;6.78;;;2.80;;
34296;SDS011;20564;42.902;25.336;2022-07-25T02:56:46;6.95;;;2.97;;
34296;SDS011;20564;42.902;25.336;2022-07-25T02:59:13;7.93;;;2.72;;
34296;SDS011;20564;42.902;25.336;2022-07-25T03:01:40;7.40;;;2.60;;
34296;SDS011;20564;42.902;25.336;2022-07-25T03:04:07;6.18;;;2.65;;
34296;SDS011;20564;42.902;25.336;2022-07-25T03:06:35;6.38;;;2.35;;
34296;SDS011;20564;42.902;25.336;2022-07-25T03:09:56;6.15;;;2.22;;
34296;SDS011;20564;42.902;25.336;2022-07-25T03:12:26;6.45;;;2.78;;
34296;SDS011;20564;42.902;25.336;2022-07-25T03:14:54;7.40;;;2.42;;
34296;SDS011;20564;42.902;25.336;2022-07-25T03:17:25;6.05;;;2.53;;
34296;SDS011;20564;42.902;25.336;2022-07-25T03:19:58;6.28;;;2.45;;
34296;SDS011;20564;42.902;25.336;2022-07-25T03:22:27;5.88;;;2.63;;
34296;SDS011;20564;42.902;25.336;2022-07-25T03:25:00;7.93;;;3.15;;
34296;SDS011;20564;42.902;25.336;2022-07-25T03:27:47;8.02;;;3.22;;
34296;SDS011;20564;42.902;25.336;2022-07-25T03:30:18;5.53;;;1.98;;
34296;SDS011;20564;42.902;25.336;2022-07-25T03:32:46;5.82;;;2.22;;
34296;SDS011;20564;42.902;25.336;2022-07-25T03:35:18;5.15;;;2.20;;
34296;SDS011;20564;42.902;25.336;2022-07-25T03:38:02;6.30;;;2.40;;
34296;SDS011;20564;42.902;25.336;2022-07-25T03:40:35;9.50;;;3.47;;
34296;SDS011;20564;42.902;25.336;2022-07-25T03:43:04;10.90;;;3.38;;
34296;SDS011;20564;42.902;25.336;2022-07-25T03:46:00;7.25;;;2.95;;
34296;SDS011;20564;42.902;25.336;2022-07-25T03:48:28;6.18;;;2.55;;
34296;SDS011;20564;42.902;25.336;2022-07-25T03:50:59;6.30;;;2.40;;
34296;SDS011;20564;42.902;25.336;2022-07-25T03:53:36;8.60;;;2.92;;
34296;SDS011;20564;42.902;25.336;2022-07-25T03:56:25;7.10;;;3.28;;
34296;SDS011;20564;42.902;25.336;2022-07-25T03:58:56;7.22;;;2.92;;
34296;SDS011;20564;42.902;25.336;2022-07-25T04:01:32;5.70;;;2.37;;
34296;SDS011;20564;42.902;25.336;2022-07-25T04:04:11;5.43;;;2.35;;
34296;SDS011;20564;42.902;25.336;2022-07-25T04:06:42;7.65;;;2.50;;
34296;SDS011;20564;42.902;25.336;2022-07-25T04:09:11;6.78;;;2.45;;
34296;SDS011;20564;42.902;25.336;2022-07-25T04:11:48;9.63;;;3.47;;
34296;SDS011;20564;42.902;25.336;2022-07-25T04:14:16;8.10;;;3.05;;
34296;SDS011;20564;42.902;25.336;2022-07-25T04:16:48;6.55;;;2.63;;
34296;SDS011;20564;42.902;25.336;2022-07-25T04:19:19;7.20;;;3.03;;
34296;SDS011;20564;42.902;25.336;2022-07-25T04:21:54;6.28;;;2.50;;
34296;SDS011;20564;42.902;25.336;2022-07-25T04:24:28;6.30;;;3.00;;
34296;SDS011;20564;42.902;25.336;2022-07-25T04:27:36;7.80;;;3.13;;
34296;SDS011;20564;42.902;25.336;2022-07-25T04:30:07;7.70;;;3.08;;
34296;SDS011;20564;42.902;25.336;2022-07-25T04:32:36;8.35;;;2.70;;
34296;SDS011;20564;42.902;25.336;2022-07-25T04:35:10;9.82;;;3.35;;
34296;SDS011;20564;42.902;25.336;2022-07-25T04:38:02;12.93;;;3.50;;
34296;SDS011;20564;42.902;25.336;2022-07-25T04:40:40;7.60;;;3.38;;
34296;SDS011;20564;42.902;25.336;2022-07-25T04:43:16;9.13;;;2.90;;
34296;SDS011;20564;42.902;25.336;2022-07-25T04:45:52;6.82;;;2.95;;
34296;SDS011;20564;42.902;25.336;2022-07-25T04:48:20;7.45;;;3.20;;
34296;SDS011;20564;42.902;25.336;2022-07-25T04:50:47;12.38;;;4.28;;
34296;SDS011;20564;42.902;25.336;2022-07-25T04:53:14;11.93;;;4.05;;
34296;SDS011;20564;42.902;25.336;2022-07-25T04:55:41;9.75;;;3.53;;
34296;SDS011;20564;42.902;25.336;2022-07-25T04:58:08;27.23;;;5.65;;
34296;SDS011;20564;42.902;25.336;2022-07-25T05:00:36;12.85;;;5.07;;
34296;SDS011;20564;42.902;25.336;2022-07-25T05:03:06;6.35;;;2.58;;
34296;SDS011;20564;42.902;25.336;2022-07-25T05:05:33;7.97;;;3.38;;
34296;SDS011;20564;42.902;25.336;2022-07-25T05:08:00;9.73;;;4.05;;
34296;SDS011;20564;42.902;25.336;2022-07-25T05:10:28;8.85;;;3.55;;
34296;SDS011;20564;42.902;25.336;2022-07-25T05:12:56;8.95;;;3.30;;
34296;SDS011;20564;42.902;25.336;2022-07-25T05:15:23;7.53;;;3.55;;
34296;SDS011;20564;42.902;25.336;2022-07-25T05:17:50;9.38;;;2.97;;
34296;SDS011;20564;42.902;25.336;2022-07-25T05:20:17;9.35;;;3.97;;
34296;SDS011;20564;42.902;25.336;2022-07-25T05:22:44;8.93;;;3.05;;
34296;SDS011;20564;42.902;25.336;2022-07-25T05:27:39;11.95;;;3.58;;
34296;SDS011;20564;42.902;25.336;2022-07-25T05:32:35;6.78;;;3.42;;
34296;SDS011;20564;42.902;25.336;2022-07-25T05:38:15;8.23;;;3.45;;
34296;SDS011;20564;42.902;25.336;2022-07-25T05:40:50;6.60;;;2.80;;
34296;SDS011;20564;42.902;25.336;2022-07-25T05:47:09;6.68;;;2.78;;
34296;SDS011;20564;42.902;25.336;2022-07-25T05:49:39;9.10;;;3.53;;
34296;SDS011;20564;42.902;25.336;2022-07-25T05:52:11;7.68;;;3.50;;
34296;SDS011;20564;42.902;25.336;2022-07-25T05:54:40;7.70;;;3.67;;
34296;SDS011;20564;42.902;25.336;2022-07-25T05:57:23;10.50;;;3.20;;
34296;SDS011;20564;42.902;25.336;2022-07-25T05:59:50;9.55;;;3.63;;
34296;SDS011;20564;42.902;25.336;2022-07-25T06:02:19;8.27;;;3.60;;
34296;SDS011;20564;42.902;25.336;2022-07-25T06:07:33;8.02;;;3.63;;
34296;SDS011;20564;42.902;25.336;2022-07-25T06:10:01;8.23;;;3.25;;
34296;SDS011;20564;42.902;25.336;2022-07-25T06:13:01;7.38;;;2.70;;
34296;SDS011;20564;42.902;25.336;2022-07-25T06:15:31;7.43;;;3.00;;
34296;SDS011;20564;42.902;25.336;2022-07-25T06:18:00;8.60;;;3.00;;
34296;SDS011;20564;42.902;25.336;2022-07-25T06:29:03;7.47;;;2.90;;
34296;SDS011;20564;42.902;25.336;2022-07-25T06:31:36;8.45;;;3.17;;
34296;SDS011;20564;42.902;25.336;2022-07-25T06:37:13;6.53;;;2.85;;
34296;SDS011;20564;42.902;25.336;2022-07-25T06:40:07;7.63;;;3.05;;
34296;SDS011;20564;42.902;25.336;2022-07-25T06:42:40;7.78;;;3.10;;
34296;SDS011;20564;42.902;25.336;2022-07-25T06:45:33;8.27;;;3.67;;
34296;SDS011;20564;42.902;25.336;2022-07-25T06:48:24;9.20;;;3.00;;
34296;SDS011;20564;42.902;25.336;2022-07-25T06:51:17;7.88;;;3.15;;
34296;SDS011;20564;42.902;25.336;2022-07-25T06:54:05;7.57;;;3.40;;
34296;SDS011;20564;42.902;25.336;2022-07-25T06:56:41;7.82;;;2.90;;
34296;SDS011;20564;42.902;25.336;2022-07-25T06:59:14;9.15;;;3.35;;
34296;SDS011;20564;42.902;25.336;2022-07-25T07:01:41;7.05;;;3.15;;
34296;SDS011;20564;42.902;25.336;2022-07-25T07:04:18;7.72;;;3.45;;
34296;SDS011;20564;42.902;25.336;2022-07-25T07:09:35;8.98;;;3.60;;
34296;SDS011;20564;42.902;25.336;2022-07-25T07:12:05;7.65;;;2.85;;
34296;SDS011;20564;42.902;25.336;2022-07-25T07:14:38;7.93;;;2.95;;
34296;SDS011;20564;42.902;25.336;2022-07-25T07:17:21;8.18;;;3.45;;
34296;SDS011;20564;42.902;25.336;2022-07-25T07:20:06;7.47;;;2.85;;
34296;SDS011;20564;42.902;25.336;2022-07-25T07:23:31;7.70;;;3.30;;
34296;SDS011;20564;42.902;25.336;2022-07-25T07:26:02;8.05;;;3.08;;
34296;SDS011;20564;42.902;25.336;2022-07-25T07:28:47;9.68;;;3.88;;
34296;SDS011;20564;42.902;25.336;2022-07-25T07:31:52;9.00;;;3.53;;
34296;SDS011;20564;42.902;25.336;2022-07-25T07:34:44;8.55;;;3.28;;
34296;SDS011;20564;42.902;25.336;2022-07-25T07:37:18;8.38;;;3.63;;
34296;SDS011;20564;42.902;25.336;2022-07-25T07:40:07;7.93;;;3.38;;
34296;SDS011;20564;42.902;25.336;2022-07-25T07:42:46;9.07;;;3.40;;
34296;SDS011;20564;42.902;25.336;2022-07-25T07:45:18;6.70;;;3.15;;
34296;SDS011;20564;42.902;25.336;2022-07-25T07:47:53;6.78;;;3.00;;
34296;SDS011;20564;42.902;25.336;2022-07-25T07:50:26;6.88;;;3.13;;
34296;SDS011;20564;42.902;25.336;2022-07-25T07:53:23;7.50;;;3.13;;
34296;SDS011;20564;42.902;25.336;2022-07-25T07:56:24;6.53;;;2.65;;
34296;SDS011;20564;42.902;25.336;2022-07-25T07:59:35;7.28;;;2.92;;
34296;SDS011;20564;42.902;25.336;2022-07-25T08:02:06;8.55;;;3.03;;
34296;SDS011;20564;42.902;25.336;2022-07-25T08:04:44;6.85;;;3.25;;
34296;SDS011;20564;42.902;25.336;2022-07-25T08:07:17;7.50;;;3.35;;
34296;SDS011;20564;42.902;25.336;2022-07-25T08:09:44;7.00;;;2.67;;
34296;SDS011;20564;42.902;25.336;2022-07-25T08:12:12;9.30;;;3.63;;
34296;SDS011;20564;42.902;25.336;2022-07-25T08:15:01;7.30;;;2.92;;
34296;SDS011;20564;42.902;25.336;2022-07-25T08:17:52;8.07;;;3.15;;
34296;SDS011;20564;42.902;25.336;2022-07-25T08:20:32;7.40;;;3.00;;
34296;SDS011;20564;42.902;25.336;2022-07-25T08:23:38;8.25;;;3.05;;
34296;SDS011;20564;42.902;25.336;2022-07-25T08:30:05;8.82;;;2.97;;
34296;SDS011;20564;42.902;25.336;2022-07-25T08:36:52;7.38;;;3.22;;
34296;SDS011;20564;42.902;25.336;2022-07-25T08:39:57;6.90;;;2.80;;
34296;SDS011;20564;42.902;25.336;2022-07-25T08:43:19;7.30;;;2.88;;
34296;SDS011;20564;42.902;25.336;2022-07-25T08:46:24;6.13;;;2.78;;
34296;SDS011;20564;42.902;25.336;2022-07-25T08:48:58;7.15;;;3.13;;
34296;SDS011;20564;42.902;25.336;2022-07-25T08:51:29;6.53;;;2.90;;
34296;SDS011;20564;42.902;25.336;2022-07-25T08:54:31;7.40;;;2.60;;
34296;SDS011;20564;42.902;25.336;2022-07-25T08:57:29;7.97;;;2.92;;
34296;SDS011;20564;42.902;25.336;2022-07-25T09:00:04;6.28;;;2.80;;
34296;SDS011;20564;42.902;25.336;2022-07-25T09:02:53;7.35;;;2.75;;
34296;SDS011;20564;42.902;25.336;2022-07-25T09:05:33;6.18;;;3.08;;
34296;SDS011;20564;42.902;25.336;2022-07-25T09:08:09;7.95;;;3.03;;
34296;SDS011;20564;42.902;25.336;2022-07-25T09:10:51;6.53;;;2.97;;
34296;SDS011;20564;42.902;25.336;2022-07-25T09:17:05;7.13;;;2.88;;
34296;SDS011;20564;42.902;25.336;2022-07-25T09:20:12;10.00;;;3.55;;
34296;SDS011;20564;42.902;25.336;2022-07-25T09:22:47;7.45;;;2.80;;
34296;SDS011;20564;42.902;25.336;2022-07-25T09:25:42;10.23;;;3.75;;
34296;SDS011;20564;42.902;25.336;2022-07-25T09:31:41;7.80;;;2.90;;
34296;SDS011;20564;42.902;25.336;2022-07-25T09:34:09;8.95;;;3.90;;
34296;SDS011;20564;42.902;25.336;2022-07-25T09:37:02;21.20;;;5.10;;
34296;SDS011;20564;42.902;25.336;2022-07-25T09:39:36;7.80;;;3.13;;
34296;SDS011;20564;42.902;25.336;2022-07-25T09:42:25;9.77;;;3.17;;
34296;SDS011;20564;42.902;25.336;2022-07-25T09:45:11;6.10;;;2.78;;
34296;SDS011;20564;42.902;25.336;2022-07-25T09:48:00;7.90;;;3.17;;
34296;SDS011;20564;42.902;25.336;2022-07-25T09:50:42;8.05;;;3.10;;
34296;SDS011;20564;42.902;25.336;2022-07-25T09:53:13;5.60;;;2.70;;
34296;SDS011;20564;42.902;25.336;2022-07-25T09:55:44;6.22;;;2.70;;
34296;SDS011;20564;42.902;25.336;2022-07-25T09:58:16;32.22;;;15.07;;
34296;SDS011;20564;42.902;25.336;2022-07-25T10:00:59;52.40;;;22.95;;
34296;SDS011;20564;42.902;25.336;2022-07-25T10:04:18;30.10;;;12.25;;
34296;SDS011;20564;42.902;25.336;2022-07-25T10:07:38;26.58;;;12.75;;
34296;SDS011;20564;42.902;25.336;2022-07-25T10:14:25;128.63;;;64.35;;
34296;SDS011;20564;42.902;25.336;2022-07-25T10:17:41;183.23;;;90.38;;
34296;SDS011;20564;42.902;25.336;2022-07-25T10:20:45;25.73;;;13.27;;
34296;SDS011;20564;42.902;25.336;2022-07-25T10:24:01;17.63;;;8.50;;
34296;SDS011;20564;42.902;25.336;2022-07-25T10:26:51;159.48;;;82.32;;
34296;SDS011;20564;42.902;25.336;2022-07-25T10:29:48;152.45;;;87.75;;
34296;SDS011;20564;42.902;25.336;2022-07-25T10:32:55;38.35;;;21.20;;
34296;SDS011;20564;42.902;25.336;2022-07-25T10:36:11;19.50;;;9.93;;
34296;SDS011;20564;42.902;25.336;2022-07-25T10:42:31;43.42;;;24.33;;
34296;SDS011;20564;42.902;25.336;2022-07-25T10:45:25;15.77;;;6.15;;
34296;SDS011;20564;42.902;25.336;2022-07-25T10:48:41;21.85;;;11.40;;
34296;SDS011;20564;42.902;25.336;2022-07-25T10:51:41;12.90;;;5.63;;
34296;SDS011;20564;42.902;25.336;2022-07-25T10:54:30;7.47;;;3.17;;
34296;SDS011;20564;42.902;25.336;2022-07-25T10:58:08;13.00;;;4.80;;
34296;SDS011;20564;42.902;25.336;2022-07-25T11:00:56;40.83;;;17.75;;
34296;SDS011;20564;42.902;25.336;2022-07-25T11:03:43;19.33;;;8.57;;
34296;SDS011;20564;42.902;25.336;2022-07-25T11:10:11;9.15;;;4.15;;
34296;SDS011;20564;42.902;25.336;2022-07-25T11:13:15;9.43;;;3.25;;
34296;SDS011;20564;42.902;25.336;2022-07-25T11:16:01;7.40;;;3.63;;
34296;SDS011;20564;42.902;25.336;2022-07-25T11:18:52;6.72;;;2.95;;
34296;SDS011;20564;42.902;25.336;2022-07-25T11:21:43;6.72;;;2.67;;
34296;SDS011;20564;42.902;25.336;2022-07-25T11:24:45;7.07;;;2.80;;
34296;SDS011;20564;42.902;25.336;2022-07-25T11:29:46;7.55;;;2.80;;
34296;SDS011;20564;42.902;25.336;2022-07-25T11:32:13;6.38;;;2.63;;
34296;SDS011;20564;42.902;25.336;2022-07-25T11:35:09;5.93;;;2.80;;
34296;SDS011;20564;42.902;25.336;2022-07-25T11:37:49;7.40;;;2.90;;
34296;SDS011;20564;42.902;25.336;2022-07-25T11:40:30;6.35;;;3.60;;
34296;SDS011;20564;42.902;25.336;2022-07-25T11:43:29;7.13;;;2.70;;
34296;SDS011;20564;42.902;25.336;2022-07-25T11:46:00;5.57;;;2.65;;
34296;SDS011;20564;42.902;25.336;2022-07-25T11:48:43;6.25;;;2.75;;
34296;SDS011;20564;42.902;25.336;2022-07-25T11:51:14;4.65;;;2.10;;
34296;SDS011;20564;42.902;25.336;2022-07-25T11:53:48;5.30;;;2.10;;
34296;SDS011;20564;42.902;25.336;2022-07-25T11:56:18;6.57;;;2.63;;
34296;SDS011;20564;42.902;25.336;2022-07-25T11:59:08;5.20;;;2.40;;
34296;SDS011;20564;42.902;25.336;2022-07-25T12:01:50;5.63;;;2.35;;
34296;SDS011;20564;42.902;25.336;2022-07-25T12:04:23;8.43;;;2.72;;
34296;SDS011;20564;42.902;25.336;2022-07-25T12:07:02;5.70;;;2.70;;
34296;SDS011;20564;42.902;25.336;2022-07-25T12:09:31;5.68;;;2.17;;
34296;SDS011;20564;42.902;25.336;2022-07-25T12:12:02;6.72;;;2.63;;
34296;SDS011;20564;42.902;25.336;2022-07-25T12:14:53;10.05;;;2.97;;
34296;SDS011;20564;42.902;25.336;2022-07-25T12:17:24;5.63;;;2.70;;
34296;SDS011;20564;42.902;25.336;2022-07-25T12:20:01;7.15;;;2.70;;
34296;SDS011;20564;42.902;25.336;2022-07-25T12:22:39;10.75;;;3.35;;
34296;SDS011;20564;42.902;25.336;2022-07-25T12:25:23;10.88;;;3.10;;
34296;SDS011;20564;42.902;25.336;2022-07-25T12:28:02;12.57;;;2.65;;
34296;SDS011;20564;42.902;25.336;2022-07-25T12:30:30;6.72;;;2.15;;
34296;SDS011;20564;42.902;25.336;2022-07-25T12:32:58;11.32;;;2.63;;
34296;SDS011;20564;42.902;25.336;2022-07-25T12:35:26;8.88;;;3.15;;
34296;SDS011;20564;42.902;25.336;2022-07-25T12:37:56;7.70;;;2.65;;
34296;SDS011;20564;42.902;25.336;2022-07-25T12:40:24;12.07;;;2.90;;
34296;SDS011;20564;42.902;25.336;2022-07-25T12:42:52;9.82;;;2.78;;
34296;SDS011;20564;42.902;25.336;2022-07-25T12:45:27;14.50;;;3.88;;
34296;SDS011;20564;42.902;25.336;2022-07-25T12:47:56;8.20;;;2.50;;
34296;SDS011;20564;42.902;25.336;2022-07-25T12:50:23;9.10;;;3.10;;
34296;SDS011;20564;42.902;25.336;2022-07-25T12:52:51;6.53;;;2.50;;
34296;SDS011;20564;42.902;25.336;2022-07-25T12:55:19;5.40;;;2.40;;
34296;SDS011;20564;42.902;25.336;2022-07-25T12:57:49;5.88;;;2.60;;
34296;SDS011;20564;42.902;25.336;2022-07-25T13:00:28;7.15;;;3.13;;
34296;SDS011;20564;42.902;25.336;2022-07-25T13:03:05;8.97;;;2.80;;
34296;SDS011;20564;42.902;25.336;2022-07-25T13:05:32;7.07;;;2.60;;
34296;SDS011;20564;42.902;25.336;2022-07-25T13:08:24;6.88;;;2.65;;
34296;SDS011;20564;42.902;25.336;2022-07-25T13:11:13;5.93;;;2.10;;
34296;SDS011;20564;42.902;25.336;2022-07-25T13:13:49;4.43;;;2.15;;
34296;SDS011;20564;42.902;25.336;2022-07-25T13:16:19;4.65;;;2.10;;
34296;SDS011;20564;42.902;25.336;2022-07-25T13:18:58;6.13;;;2.30;;
34296;SDS011;20564;42.902;25.336;2022-07-25T13:21:25;4.32;;;1.88;;
34296;SDS011;20564;42.902;25.336;2022-07-25T13:26:19;5.82;;;2.50;;
34296;SDS011;20564;42.902;25.336;2022-07-25T13:28:47;5.63;;;2.60;;
34296;SDS011;20564;42.902;25.336;2022-07-25T13:31:14;5.03;;;2.30;;
34296;SDS011;20564;42.902;25.336;2022-07-25T13:33:48;4.10;;;1.98;;
34296;SDS011;20564;42.902;25.336;2022-07-25T13:36:19;5.53;;;2.22;;
34296;SDS011;20564;42.902;25.336;2022-07-25T13:38:49;7.43;;;2.53;;
34296;SDS011;20564;42.902;25.336;2022-07-25T13:41:17;5.72;;;2.13;;
34296;SDS011;20564;42.902;25.336;2022-07-25T13:43:46;5.85;;;2.20;;
34296;SDS011;20564;42.902;25.336;2022-07-25T13:46:13;6.10;;;2.92;;
34296;SDS011;20564;42.902;25.336;2022-07-25T13:48:40;4.40;;;2.00;;
34296;SDS011;20564;42.902;25.336;2022-07-25T13:51:08;4.53;;;1.85;;
34296;SDS011;20564;42.902;25.336;2022-07-25T13:53:38;5.63;;;2.22;;
34296;SDS011;20564;42.902;25.336;2022-07-25T13:58:33;7.57;;;2.45;;
34296;SDS011;20564;42.902;25.336;2022-07-25T14:01:00;4.50;;;2.25;;
34296;SDS011;20564;42.902;25.336;2022-07-25T14:03:28;4.13;;;1.95;;
34296;SDS011;20564;42.902;25.336;2022-07-25T14:05:55;4.60;;;1.88;;
34296;SDS011;20564;42.902;25.336;2022-07-25T14:08:26;6.57;;;2.38;;
34296;SDS011;20564;42.902;25.336;2022-07-25T14:10:53;4.28;;;2.00;;
34296;SDS011;20564;42.902;25.336;2022-07-25T14:13:21;4.00;;;1.90;;
34296;SDS011;20564;42.902;25.336;2022-07-25T14:15:48;5.15;;;2.20;;
34296;SDS011;20564;42.902;25.336;2022-07-25T14:20:42;4.78;;;2.10;;
34296;SDS011;20564;42.902;25.336;2022-07-25T14:23:13;4.97;;;2.08;;
34296;SDS011;20564;42.902;25.336;2022-07-25T14:25:41;4.20;;;1.90;;
34296;SDS011;20564;42.902;25.336;2022-07-25T14:30:46;5.28;;;2.40;;
34296;SDS011;20564;42.902;25.336;2022-07-25T14:33:23;5.32;;;1.90;;
34296;SDS011;20564;42.902;25.336;2022-07-25T14:35:51;6.30;;;2.42;;
34296;SDS011;20564;42.902;25.336;2022-07-25T14:38:18;4.70;;;2.10;;
34296;SDS011;20564;42.902;25.336;2022-07-25T14:40:47;4.30;;;2.10;;
34296;SDS011;20564;42.902;25.336;2022-07-25T14:45:44;4.63;;;2.10;;
34296;SDS011;20564;42.902;25.336;2022-07-25T14:48:11;4.20;;;2.15;;
34296;SDS011;20564;42.902;25.336;2022-07-25T14:50:48;5.20;;;2.17;;
34296;SDS011;20564;42.902;25.336;2022-07-25T14:53:15;5.07;;;2.03;;
34296;SDS011;20564;42.902;25.336;2022-07-25T14:55:45;5.78;;;2.15;;
34296;SDS011;20564;42.902;25.336;2022-07-25T14:58:13;4.43;;;2.00;;
34296;SDS011;20564;42.902;25.336;2022-07-25T15:00:46;4.70;;;2.08;;
34296;SDS011;20564;42.902;25.336;2022-07-25T15:03:23;4.65;;;2.40;;
34296;SDS011;20564;42.902;25.336;2022-07-25T15:05:50;10.45;;;2.35;;
34296;SDS011;20564;42.902;25.336;2022-07-25T15:08:17;5.18;;;2.30;;
34296;SDS011;20564;42.902;25.336;2022-07-25T15:10:45;6.88;;;2.10;;
34296;SDS011;20564;42.902;25.336;2022-07-25T15:13:13;6.07;;;2.33;;
34296;SDS011;20564;42.902;25.336;2022-07-25T15:15:56;6.70;;;2.53;;
34296;SDS011;20564;42.902;25.336;2022-07-25T15:18:24;5.22;;;2.40;;
34296;SDS011;20564;42.902;25.336;2022-07-25T15:20:54;6.13;;;2.15;;
34296;SDS011;20564;42.902;25.336;2022-07-25T15:23:32;6.40;;;2.55;;
34296;SDS011;20564;42.902;25.336;2022-07-25T15:26:05;6.72;;;2.40;;
34296;SDS011;20564;42.902;25.336;2022-07-25T15:28:35;3.83;;;2.00;;
34296;SDS011;20564;42.902;25.336;2022-07-25T15:31:04;9.40;;;2.47;;
34296;SDS011;20564;42.902;25.336;2022-07-25T15:33:37;5.60;;;2.13;;
34296;SDS011;20564;42.902;25.336;2022-07-25T15:36:05;3.83;;;1.88;;
34296;SDS011;20564;42.902;25.336;2022-07-25T15:38:43;4.43;;;2.13;;
34296;SDS011;20564;42.902;25.336;2022-07-25T15:41:13;7.65;;;2.75;;
34296;SDS011;20564;42.902;25.336;2022-07-25T15:43:43;4.40;;;2.00;;
34296;SDS011;20564;42.902;25.336;2022-07-25T15:46:13;6.65;;;2.40;;
34296;SDS011;20564;42.902;25.336;2022-07-25T15:48:43;4.85;;;2.17;;
34296;SDS011;20564;42.902;25.336;2022-07-25T15:51:13;3.88;;;1.70;;
34296;SDS011;20564;42.902;25.336;2022-07-25T15:53:44;4.40;;;2.25;;
34296;SDS011;20564;42.902;25.336;2022-07-25T15:56:14;5.55;;;2.30;;
34296;SDS011;20564;42.902;25.336;2022-07-25T15:58:42;4.15;;;2.05;;
34296;SDS011;20564;42.902;25.336;2022-07-25T16:01:10;6.60;;;2.20;;
34296;SDS011;20564;42.902;25.336;2022-07-25T16:03:38;5.07;;;1.98;;
34296;SDS011;20564;42.902;25.336;2022-07-25T16:06:05;4.72;;;2.20;;
34296;SDS011;20564;42.902;25.336;2022-07-25T16:08:44;5.05;;;2.10;;
34296;SDS011;20564;42.902;25.336;2022-07-25T16:11:12;4.13;;;1.88;;
34296;SDS011;20564;42.902;25.336;2022-07-25T16:13:43;4.82;;;2.05;;
34296;SDS011;20564;42.902;25.336;2022-07-25T16:16:10;4.60;;;1.92;;
34296;SDS011;20564;42.902;25.336;2022-07-25T16:18:38;4.22;;;1.70;;
34296;SDS011;20564;42.902;25.336;2022-07-25T16:21:05;5.80;;;2.40;;
34296;SDS011;20564;42.902;25.336;2022-07-25T16:23:35;5.25;;;2.40;;
34296;SDS011;20564;42.902;25.336;2022-07-25T16:26:10;6.15;;;2.38;;
34296;SDS011;20564;42.902;25.336;2022-07-25T16:28:39;5.18;;;1.83;;
34296;SDS011;20564;42.902;25.336;2022-07-25T16:31:16;8.65;;;2.28;;
34296;SDS011;20564;42.902;25.336;2022-07-25T16:33:44;5.53;;;2.28;;
34296;SDS011;20564;42.902;25.336;2022-07-25T16:38:39;5.88;;;2.30;;
34296;SDS011;20564;42.902;25.336;2022-07-25T16:41:07;3.63;;;1.90;;
34296;SDS011;20564;42.902;25.336;2022-07-25T16:43:35;4.90;;;2.35;;
34296;SDS011;20564;42.902;25.336;2022-07-25T16:46:02;4.47;;;1.80;;